createdAt,value
2023-02-02T15:45:48.468Z,1015.18
2023-02-02T15:46:48.489Z,1015.23
2023-02-02T15:47:48.376Z,1015.26
2023-02-02T15:48:48.361Z,1015.20
2023-02-02T15:49:48.322Z,1015.21
2023-02-02T15:50:48.339Z,1015.27
2023-02-02T15:51:48.333Z,1015.28
2023-02-02T15:52:48.293Z,1015.29
2023-02-02T15:53:48.227Z,1015.34
2023-02-02T15:54:48.194Z,1015.28
2023-02-02T15:55:48.166Z,1015.30
2023-02-02T15:56:48.139Z,1015.22
2023-02-02T15:57:48.104Z,1015.22
2023-02-02T15:58:48.079Z,1015.24
2023-02-02T15:59:48.056Z,1015.26
2023-02-02T16:00:48.080Z,1015.20
2023-02-02T16:01:48.092Z,1015.22
2023-02-02T16:02:47.986Z,1015.16
2023-02-02T16:03:47.998Z,1015.22
2023-02-02T16:04:47.939Z,1015.26
2023-02-02T16:05:47.973Z,1015.21
2023-02-02T16:06:47.902Z,1015.23
2023-02-02T16:07:59.713Z,1015.23
2023-02-02T16:08:47.871Z,1015.23
2023-02-02T16:09:47.817Z,1015.28
2023-02-02T16:10:47.760Z,1015.26
2023-02-02T16:11:47.915Z,1015.29
2023-02-02T16:12:47.751Z,1015.24
2023-02-02T16:13:47.727Z,1015.30
2023-02-02T16:14:47.648Z,1015.31
2023-02-02T16:15:47.617Z,1015.29
2023-02-02T16:16:47.755Z,1015.27
2023-02-02T16:17:47.645Z,1015.30
2023-02-02T16:18:47.518Z,1015.25
2023-02-02T16:19:47.489Z,1015.26
2023-02-02T16:20:47.479Z,1015.30
2023-02-02T16:21:47.451Z,1015.35
2023-02-02T16:22:47.409Z,1015.31
2023-02-02T16:23:47.385Z,1015.34
2023-02-02T16:24:47.364Z,1015.40
2023-02-02T16:25:47.322Z,1015.37
2023-02-02T16:26:47.335Z,1015.39
2023-02-02T16:27:47.263Z,1015.38
2023-02-02T16:28:47.238Z,1015.43
2023-02-02T16:29:47.209Z,1015.42
2023-02-02T16:30:47.229Z,1015.39
2023-02-02T16:31:47.229Z,1015.41
2023-02-02T16:32:47.127Z,1015.42
2023-02-02T16:33:47.130Z,1015.43
2023-02-02T16:34:47.375Z,1015.43
2023-02-02T16:35:47.047Z,1015.41
2023-02-02T16:36:47.016Z,1015.42
2023-02-02T16:37:46.988Z,1015.47
2023-02-02T16:38:46.959Z,1015.49
2023-02-02T16:39:46.999Z,1015.48
2023-02-02T16:40:46.906Z,1015.53
2023-02-02T16:41:46.909Z,1015.53
2023-02-02T16:42:46.861Z,1015.59
2023-02-02T16:43:46.826Z,1015.59
2023-02-02T16:44:46.795Z,1015.55
2023-02-02T16:45:46.809Z,1015.57
2023-02-02T16:46:46.766Z,1015.58
2023-02-02T16:47:46.812Z,1015.56
2023-02-02T16:48:46.689Z,1015.55
2023-02-02T16:49:46.694Z,1015.57
2023-02-02T16:50:46.627Z,1015.63
2023-02-02T16:51:46.602Z,1015.56
2023-02-02T16:52:46.571Z,1015.62
2023-02-02T16:53:46.548Z,1015.60
2023-02-02T16:54:46.529Z,1015.60
2023-02-02T16:55:50.939Z,1015.60
2023-02-02T16:56:46.467Z,1015.63
2023-02-02T16:57:46.434Z,1015.61
2023-02-02T16:58:46.560Z,1015.60
2023-02-02T16:59:46.391Z,1015.61
2023-02-02T17:00:46.372Z,1015.59
2023-02-02T17:01:46.446Z,1015.62
2023-02-02T17:02:46.362Z,1015.63
2023-02-02T17:03:46.271Z,1015.64
2023-02-02T17:04:46.239Z,1015.68
2023-02-02T17:05:46.239Z,1015.66
2023-02-02T17:06:52.902Z,1015.72
2023-02-02T17:07:46.159Z,1015.74
2023-02-02T17:08:46.129Z,1015.78
2023-02-02T17:09:46.106Z,1015.77
2023-02-02T17:10:46.076Z,1015.75
2023-02-02T17:11:46.050Z,1015.78
2023-02-02T17:12:46.027Z,1015.78
2023-02-02T17:13:45.995Z,1015.76
2023-02-02T17:14:45.962Z,1015.73
2023-02-02T17:15:45.938Z,1015.76
2023-02-02T17:16:45.986Z,1015.76
2023-02-02T17:17:45.883Z,1015.76
2023-02-02T17:18:45.881Z,1015.77
2023-02-02T17:19:45.831Z,1015.76
2023-02-02T17:20:45.797Z,1015.79
2023-02-02T17:21:45.790Z,1015.80
2023-02-02T17:22:45.751Z,1015.75
2023-02-02T17:23:45.715Z,1015.76
2023-02-02T17:24:45.749Z,1015.77
2023-02-02T17:25:45.669Z,1015.80
2023-02-02T17:26:45.687Z,1015.80
2023-02-02T17:27:45.611Z,1015.76
2023-02-02T17:28:45.578Z,1015.80
2023-02-02T17:29:45.559Z,1015.83
2023-02-02T17:30:45.713Z,1015.79
2023-02-02T17:31:45.695Z,1015.83
2023-02-02T17:32:45.495Z,1015.79
2023-02-02T17:33:45.437Z,1015.78
2023-02-02T17:34:45.413Z,1015.83
2023-02-02T17:35:54.476Z,1015.84
2023-02-02T17:36:45.353Z,1015.86
2023-02-02T17:37:45.347Z,1015.84
2023-02-02T17:38:45.301Z,1015.80
2023-02-02T17:39:45.293Z,1015.80
2023-02-02T17:40:45.243Z,1015.78
2023-02-02T17:41:45.230Z,1015.83
2023-02-02T17:42:45.190Z,1015.79
2023-02-02T17:43:45.166Z,1015.78
2023-02-02T17:44:45.141Z,1015.86
2023-02-02T17:45:45.247Z,1015.84
2023-02-02T17:46:45.085Z,1015.82
2023-02-02T17:47:45.070Z,1015.80
2023-02-02T17:48:45.027Z,1015.86
2023-02-02T17:49:45.093Z,1015.82
2023-02-02T17:50:45.024Z,1015.85
2023-02-02T17:51:45.149Z,1015.84
2023-02-02T17:52:45.005Z,1015.79
2023-02-02T17:53:44.929Z,1015.80
2023-02-02T17:54:44.861Z,1015.81
2023-02-02T17:55:44.833Z,1015.80
2023-02-02T17:56:44.800Z,1015.77
2023-02-02T17:57:47.151Z,1015.81
2023-02-02T17:58:44.748Z,1015.81
2023-02-02T17:59:44.719Z,1015.80
2023-02-02T18:00:44.693Z,1015.79
2023-02-02T18:01:44.720Z,1015.77
2023-02-02T18:02:44.687Z,1015.79
2023-02-02T18:03:44.612Z,1015.78
2023-02-02T18:04:45.753Z,1015.79
2023-02-02T18:05:44.557Z,1015.80
2023-02-02T18:06:44.526Z,1015.78
2023-02-02T18:07:44.505Z,1015.85
2023-02-02T18:08:44.471Z,1015.74
2023-02-02T18:09:44.472Z,1015.80
2023-02-02T18:10:44.418Z,1015.79
2023-02-02T18:11:44.397Z,1015.78
2023-02-02T18:12:44.366Z,1015.80
2023-02-02T18:13:44.337Z,1015.80
2023-02-02T18:14:44.324Z,1015.78
2023-02-02T18:15:44.359Z,1015.76
2023-02-02T18:16:44.254Z,1015.81
2023-02-02T18:17:44.228Z,1015.80
2023-02-02T18:18:44.199Z,1015.79
2023-02-02T18:19:44.168Z,1015.86
2023-02-02T18:20:44.139Z,1015.76
2023-02-02T18:21:44.120Z,1015.75
2023-02-02T18:22:44.101Z,1015.74
2023-02-02T18:23:44.060Z,1015.74
2023-02-02T18:24:44.030Z,1015.72
2023-02-02T18:25:44.024Z,1015.73
2023-02-02T18:26:44.001Z,1015.70
2023-02-02T18:27:43.958Z,1015.67
2023-02-02T18:28:43.919Z,1015.65
2023-02-02T18:29:43.895Z,1015.70
2023-02-02T18:30:43.987Z,1015.69
2023-02-02T18:31:43.956Z,1015.69
2023-02-02T18:32:43.897Z,1015.69
2023-02-02T18:33:43.785Z,1015.62
2023-02-02T18:34:43.753Z,1015.68
2023-02-02T18:35:43.736Z,1015.63
2023-02-02T18:36:43.697Z,1015.67
2023-02-02T18:37:43.673Z,1015.67
2023-02-02T18:38:43.645Z,1015.66
2023-02-02T18:39:43.700Z,1015.63
2023-02-02T18:40:43.644Z,1015.66
2023-02-02T18:41:43.599Z,1015.65
2023-02-02T18:42:43.532Z,1015.68
2023-02-02T18:43:43.509Z,1015.66
2023-02-02T18:44:43.478Z,1015.69
2023-02-02T18:45:43.451Z,1015.69
2023-02-02T18:46:43.490Z,1015.70
2023-02-02T18:47:43.407Z,1015.76
2023-02-02T18:48:43.378Z,1015.71
2023-02-02T18:49:43.339Z,1015.71
2023-02-02T18:50:43.313Z,1015.75
2023-02-02T18:51:43.284Z,1015.70
2023-02-02T18:52:43.258Z,1015.71
2023-02-02T18:53:43.241Z,1015.67
2023-02-02T18:54:43.371Z,1015.72
2023-02-02T18:55:43.179Z,1015.72
2023-02-02T18:56:43.156Z,1015.67
2023-02-02T18:57:43.143Z,1015.71
2023-02-02T18:58:43.099Z,1015.69
2023-02-02T18:59:43.063Z,1015.71
2023-02-02T19:00:43.031Z,1015.71
2023-02-02T19:01:43.035Z,1015.71
2023-02-02T19:02:42.977Z,1015.72
2023-02-02T19:03:42.964Z,1015.68
2023-02-02T19:04:42.922Z,1015.70
2023-02-02T19:05:42.899Z,1015.70
2023-02-02T19:06:42.868Z,1015.75
2023-02-02T19:07:42.839Z,1015.74
2023-02-02T19:08:42.828Z,1015.78
2023-02-02T19:09:42.789Z,1015.78
2023-02-02T19:10:42.761Z,1015.81
2023-02-02T19:11:42.731Z,1015.82
2023-02-02T19:12:42.702Z,1015.79
2023-02-02T19:13:42.694Z,1015.89
2023-02-02T19:14:42.648Z,1015.78
2023-02-02T19:15:42.764Z,1015.73
2023-02-02T19:16:42.593Z,1015.76
2023-02-02T19:17:42.579Z,1015.78
2023-02-02T19:18:42.537Z,1015.83
2023-02-02T19:19:42.511Z,1015.81
2023-02-02T19:20:42.486Z,1015.81
2023-02-02T19:21:42.481Z,1015.81
2023-02-02T19:22:42.430Z,1015.83
2023-02-02T19:23:42.401Z,1015.82
2023-02-02T19:24:42.376Z,1015.83
2023-02-02T19:25:42.349Z,1015.80
2023-02-02T19:26:42.372Z,1015.86
2023-02-02T19:27:42.292Z,1015.87
2023-02-02T19:28:42.262Z,1015.80
2023-02-02T19:29:42.264Z,1015.81
2023-02-02T19:30:42.259Z,1015.81
2023-02-02T19:31:42.291Z,1015.80
2023-02-02T19:32:42.150Z,1015.75
2023-02-02T19:33:42.141Z,1015.83
2023-02-02T19:34:42.100Z,1015.83
2023-02-02T19:35:42.073Z,1015.80
2023-02-02T19:36:42.044Z,1015.77
2023-02-02T19:37:42.011Z,1015.77
2023-02-02T19:38:42.016Z,1015.79
2023-02-02T19:39:41.971Z,1015.78
2023-02-02T19:40:41.936Z,1015.80
2023-02-02T19:41:41.922Z,1015.86
2023-02-02T19:42:41.874Z,1015.91
2023-02-02T19:43:41.850Z,1015.85
2023-02-02T19:44:41.824Z,1015.86
2023-02-02T19:45:41.814Z,1015.89
2023-02-02T19:46:41.810Z,1015.86
2023-02-02T19:47:41.739Z,1015.87
2023-02-02T19:48:41.709Z,1015.89
2023-02-02T19:49:41.693Z,1015.87
2023-02-02T19:50:41.663Z,1015.87
2023-02-02T19:51:41.629Z,1015.86
2023-02-02T19:52:41.604Z,1015.88
2023-02-02T19:53:41.577Z,1015.89
2023-02-02T19:54:41.576Z,1015.91
2023-02-02T19:55:41.517Z,1015.89
2023-02-02T19:56:41.491Z,1015.85
2023-02-02T19:57:41.463Z,1015.84
2023-02-02T19:58:41.449Z,1015.81
2023-02-02T19:59:41.424Z,1015.82
2023-02-02T20:00:41.474Z,1015.82
2023-02-02T20:01:41.385Z,1015.81
2023-02-02T20:02:41.386Z,1015.78
2023-02-02T20:03:41.297Z,1015.77
2023-02-02T20:04:41.269Z,1015.79
2023-02-02T20:05:41.244Z,1015.74
2023-02-02T20:06:56.677Z,1015.74
2023-02-02T20:07:41.188Z,1015.72
2023-02-02T20:08:41.161Z,1015.71
2023-02-02T20:09:41.137Z,1015.69
2023-02-02T20:10:41.129Z,1015.70
2023-02-02T20:11:41.080Z,1015.72
2023-02-02T20:12:41.077Z,1015.74
2023-02-02T20:13:41.024Z,1015.74
2023-02-02T20:14:40.997Z,1015.80
2023-02-02T20:15:40.970Z,1015.84
2023-02-02T20:16:41.035Z,1015.78
2023-02-02T20:17:40.928Z,1015.84
2023-02-02T20:18:40.886Z,1015.84
2023-02-02T20:19:40.858Z,1015.86
2023-02-02T20:20:40.835Z,1015.83
2023-02-02T20:21:40.806Z,1015.81
2023-02-02T20:22:40.777Z,1015.82
2023-02-02T20:23:40.775Z,1015.82
2023-02-02T20:24:40.728Z,1015.83
2023-02-02T20:25:40.691Z,1015.82
2023-02-02T20:26:40.688Z,1015.82
2023-02-02T20:27:40.637Z,1015.74
2023-02-02T20:28:40.613Z,1015.75
2023-02-02T20:29:40.587Z,1015.78
2023-02-02T20:30:40.606Z,1015.78
2023-02-02T20:31:40.547Z,1015.81
2023-02-02T20:32:40.502Z,1015.77
2023-02-02T20:33:40.489Z,1015.78
2023-02-02T20:34:40.446Z,1015.73
2023-02-02T20:35:40.424Z,1015.73
2023-02-02T20:36:40.394Z,1015.75
2023-02-02T20:37:40.362Z,1015.76
2023-02-02T20:38:40.339Z,1015.72
2023-02-02T20:39:40.308Z,1015.73
2023-02-02T20:40:40.282Z,1015.78
2023-02-02T20:41:40.250Z,1015.78
2023-02-02T20:42:40.237Z,1015.77
2023-02-02T20:43:40.199Z,1015.72
2023-02-02T20:44:40.181Z,1015.79
2023-02-02T20:45:40.206Z,1015.76
2023-02-02T20:46:40.115Z,1015.72
2023-02-02T20:47:40.090Z,1015.74
2023-02-02T20:48:40.060Z,1015.73
2023-02-02T20:49:40.078Z,1015.70
2023-02-02T20:50:40.006Z,1015.77
2023-02-02T20:51:39.975Z,1015.68
2023-02-02T20:52:39.973Z,1015.74
2023-02-02T20:53:39.923Z,1015.69
2023-02-02T20:54:39.934Z,1015.71
2023-02-02T20:55:39.869Z,1015.79
2023-02-02T20:56:39.840Z,1015.78
2023-02-02T20:57:39.816Z,1015.80
2023-02-02T20:58:39.792Z,1015.80
2023-02-02T20:59:39.759Z,1015.88
2023-02-02T21:00:39.734Z,1015.88
2023-02-02T21:01:39.701Z,1015.92
2023-02-02T21:02:39.745Z,1015.90
2023-02-02T21:03:39.648Z,1015.89
2023-02-02T21:04:39.635Z,1015.95
2023-02-02T21:05:39.610Z,1016.01
2023-02-02T21:06:39.565Z,1016.02
2023-02-02T21:07:39.536Z,1016.03
2023-02-02T21:08:39.511Z,1015.99
2023-02-02T21:09:39.495Z,1016.04
2023-02-02T21:10:39.455Z,1015.99
2023-02-02T21:11:39.436Z,1016.06
2023-02-02T21:12:39.400Z,1016.02
2023-02-02T21:13:39.372Z,1016.00
2023-02-02T21:14:39.346Z,1016.01
2023-02-02T21:15:39.316Z,1015.95
2023-02-02T21:16:39.329Z,1016.02
2023-02-02T21:17:39.263Z,1015.93
2023-02-02T21:18:39.237Z,1015.91
2023-02-02T21:19:39.205Z,1015.94
2023-02-02T21:20:39.181Z,1016.02
2023-02-02T21:21:39.243Z,1015.99
2023-02-02T21:22:39.135Z,1015.94
2023-02-02T21:23:39.103Z,1016.00
2023-02-02T21:24:39.071Z,1016.06
2023-02-02T21:25:39.048Z,1016.08
2023-02-02T21:26:39.272Z,1016.03
2023-02-02T21:27:38.986Z,1016.02
2023-02-02T21:28:38.965Z,1015.97
2023-02-02T21:29:38.959Z,1015.94
2023-02-02T21:30:39.022Z,1015.92
2023-02-02T21:31:39.005Z,1015.91
2023-02-02T21:32:38.854Z,1015.94
2023-02-02T21:33:38.826Z,1015.87
2023-02-02T21:34:38.799Z,1015.79
2023-02-02T21:35:38.765Z,1015.88
2023-02-02T21:36:38.740Z,1015.85
2023-02-02T21:37:38.730Z,1015.77
2023-02-02T21:38:38.685Z,1015.81
2023-02-02T21:39:38.677Z,1015.83
2023-02-02T21:40:38.666Z,1015.78
2023-02-02T21:41:38.604Z,1015.76
2023-02-02T21:42:38.577Z,1015.79
2023-02-02T21:43:38.548Z,1015.87
2023-02-02T21:44:38.574Z,1015.84
2023-02-02T21:45:38.679Z,1015.82
2023-02-02T21:46:38.568Z,1015.79
2023-02-02T21:47:38.435Z,1015.85
2023-02-02T21:48:38.409Z,1015.73
2023-02-02T21:49:38.383Z,1015.77
2023-02-02T21:50:38.356Z,1015.73
2023-02-02T21:51:38.329Z,1015.72
2023-02-02T21:52:38.301Z,1015.72
2023-02-02T21:53:38.291Z,1015.73
2023-02-02T21:54:38.275Z,1015.76
2023-02-02T21:55:38.215Z,1015.75
2023-02-02T21:56:38.198Z,1015.78
2023-02-02T21:57:38.165Z,1015.75
2023-02-02T21:58:38.142Z,1015.76
2023-02-02T21:59:38.106Z,1015.71
2023-02-02T22:00:38.125Z,1015.72
2023-02-02T22:01:38.111Z,1015.71
2023-02-02T22:02:38.140Z,1015.72
2023-02-02T22:03:38.034Z,1015.75
2023-02-02T22:04:37.968Z,1015.83
2023-02-02T22:05:37.950Z,1015.79
2023-02-02T22:06:37.924Z,1015.76
2023-02-02T22:07:37.889Z,1015.76
2023-02-02T22:08:37.859Z,1015.83
2023-02-02T22:09:37.863Z,1015.82
2023-02-02T22:10:37.808Z,1015.79
2023-02-02T22:11:37.776Z,1015.74
2023-02-02T22:12:37.752Z,1015.74
2023-02-02T22:13:37.732Z,1015.75
2023-02-02T22:14:37.736Z,1015.84
2023-02-02T22:15:39.015Z,1015.84
2023-02-02T22:16:37.641Z,1015.78
2023-02-02T22:17:37.616Z,1015.78
2023-02-02T22:18:37.589Z,1015.82
2023-02-02T22:19:37.558Z,1015.75
2023-02-02T22:20:37.538Z,1015.77
2023-02-02T22:21:37.510Z,1015.76
2023-02-02T22:22:37.476Z,1015.70
2023-02-02T22:23:37.447Z,1015.70
2023-02-02T22:24:37.421Z,1015.66
2023-02-02T22:25:37.413Z,1015.67
2023-02-02T22:26:37.366Z,1015.76
2023-02-02T22:27:37.375Z,1015.66
2023-02-02T22:28:37.312Z,1015.56
2023-02-02T22:29:37.282Z,1015.53
2023-02-02T22:30:37.277Z,1015.50
2023-02-02T22:31:37.350Z,1015.47
2023-02-02T22:32:37.205Z,1015.49
2023-02-02T22:33:37.175Z,1015.53
2023-02-02T22:34:37.151Z,1015.51
2023-02-02T22:35:37.121Z,1015.46
2023-02-02T22:36:37.093Z,1015.51
2023-02-02T22:37:37.068Z,1015.57
2023-02-02T22:38:37.039Z,1015.60
2023-02-02T22:39:37.010Z,1015.55
2023-02-02T22:40:36.984Z,1015.60
2023-02-02T22:41:36.974Z,1015.61
2023-02-02T22:42:36.929Z,1015.71
2023-02-02T22:43:36.902Z,1015.71
2023-02-02T22:44:36.879Z,1015.80
2023-02-02T22:45:36.851Z,1015.72
2023-02-02T22:46:36.874Z,1015.74
2023-02-02T22:47:36.794Z,1015.75
2023-02-02T22:48:36.812Z,1015.73
2023-02-02T22:49:36.737Z,1015.75
2023-02-02T22:50:36.712Z,1015.72
2023-02-02T22:51:36.679Z,1015.66
2023-02-02T22:52:36.664Z,1015.70
2023-02-02T22:53:36.634Z,1015.63
2023-02-02T22:54:36.610Z,1015.64
2023-02-02T22:55:36.570Z,1015.54
2023-02-02T22:56:36.550Z,1015.53
2023-02-02T22:57:36.536Z,1015.51
2023-02-02T22:58:36.492Z,1015.52
2023-02-02T22:59:36.462Z,1015.50
2023-02-02T23:00:36.438Z,1015.40
2023-02-02T23:01:36.405Z,1015.42
2023-02-02T23:02:36.416Z,1015.34
2023-02-02T23:03:36.457Z,1015.41
2023-02-02T23:04:36.328Z,1015.44
2023-02-02T23:05:36.301Z,1015.49
2023-02-02T23:06:36.269Z,1015.40
2023-02-02T23:07:36.242Z,1015.43
2023-02-02T23:08:36.223Z,1015.38
2023-02-02T23:09:36.189Z,1015.34
2023-02-02T23:10:36.160Z,1015.33
2023-02-02T23:11:36.133Z,1015.36
2023-02-02T23:12:36.113Z,1015.38
2023-02-02T23:13:36.094Z,1015.26
2023-02-02T23:14:36.051Z,1015.38
2023-02-02T23:15:36.033Z,1015.37
2023-02-02T23:16:35.998Z,1015.37
2023-02-02T23:17:35.972Z,1015.36
2023-02-02T23:18:35.950Z,1015.31
2023-02-02T23:19:35.916Z,1015.30
2023-02-02T23:20:35.888Z,1015.33
2023-02-02T23:21:35.861Z,1015.31
2023-02-02T23:22:35.833Z,1015.33
2023-02-02T23:23:35.802Z,1015.28
2023-02-02T23:24:35.782Z,1015.35
2023-02-02T23:25:35.752Z,1015.31
2023-02-02T23:26:35.726Z,1015.32
2023-02-02T23:27:35.698Z,1015.22
2023-02-02T23:28:35.695Z,1015.26
2023-02-02T23:29:35.673Z,1015.16
2023-02-02T23:30:35.645Z,1015.07
2023-02-02T23:31:35.665Z,1015.07
2023-02-02T23:32:35.593Z,1015.05
2023-02-02T23:33:35.543Z,1015.04
2023-02-02T23:34:35.521Z,1014.96
2023-02-02T23:35:35.488Z,1014.97
2023-02-02T23:36:35.453Z,1014.91
2023-02-02T23:37:35.429Z,1014.88
2023-02-02T23:38:35.399Z,1014.93
2023-02-02T23:39:35.368Z,1014.91
2023-02-02T23:40:35.343Z,1014.90
2023-02-02T23:41:35.319Z,1014.85
2023-02-02T23:42:35.295Z,1014.96
2023-02-02T23:43:35.264Z,1014.82
2023-02-02T23:44:35.237Z,1014.82
2023-02-02T23:45:35.223Z,1014.86
2023-02-02T23:46:35.233Z,1014.80
2023-02-02T23:47:35.188Z,1014.80
2023-02-02T23:48:35.127Z,1014.77
2023-02-02T23:49:35.117Z,1014.81
2023-02-02T23:50:35.072Z,1014.76
2023-02-02T23:51:35.046Z,1014.86
2023-02-02T23:52:35.016Z,1014.80
2023-02-02T23:53:34.986Z,1014.75
2023-02-02T23:54:34.969Z,1014.84
2023-02-02T23:55:34.935Z,1014.78
2023-02-02T23:56:34.911Z,1014.81
2023-02-02T23:57:34.878Z,1014.67
2023-02-02T23:58:34.854Z,1014.77
2023-02-02T23:59:34.833Z,1014.72
